Time,TemperatureF,DewpointF,PressureIn,WindDirection,WindDirectionDegrees,WindSpeedMPH,WindSpeedGustMPH,Humidity,HourlyPrecipIn,Conditions,Clouds,dailyrainin,SolarRadiationWatts/m^2,SoftwareType,DateUTC
2013-02-15 00:02:00,38.1,21.6,30.05,SE,128,4.0,13.0,51,0.00,,,0.00,0.0,meteohub,2013-02-15 07:02:00,
2013-02-15 00:07:00,37.9,21.4,30.05,ESE,121,2.0,13.0,51,0.00,,,0.00,0.0,meteohub,2013-02-15 07:07:00,
2013-02-15 00:12:00,38.1,21.6,30.05,NE,34,4.0,13.0,51,0.00,,,0.00,0.0,meteohub,2013-02-15 07:12:00,
2013-02-15 00:22:00,37.9,19.9,30.06,NNW,331,4.0,15.0,48,0.00,,,0.00,0.0,meteohub,2013-02-15 07:22:00,
2013-02-15 00:27:00,37.6,19.2,30.06,NNW,331,5.0,15.0,47,0.00,,,0.00,0.0,meteohub,2013-02-15 07:27:00,
2013-02-15 00:32:00,36.9,19.0,30.06,NNE,22,7.0,11.0,48,0.00,,,0.00,0.0,meteohub,2013-02-15 07:32:00,
2013-02-15 00:37:00,36.5,18.7,30.07,North,9,5.0,10.0,48,0.00,,,0.00,0.0,meteohub,2013-02-15 07:37:00,
2013-02-15 00:42:00,36.1,18.3,30.07,NNW,341,5.0,9.0,48,0.00,,,0.00,0.0,meteohub,2013-02-15 07:42:00,
2013-02-15 00:47:00,35.4,18.1,30.07,NW,306,5.0,9.0,49,0.00,,,0.00,0.0,meteohub,2013-02-15 07:47:00,
2013-02-15 00:52:00,35.2,18.5,30.08,ENE,67,4.0,9.0,50,0.00,,,0.00,0.0,meteohub,2013-02-15 07:52:00,
2013-02-15 00:57:00,35.1,18.3,30.08,ENE,57,3.0,8.0,50,0.00,,,0.00,0.0,meteohub,2013-02-15 07:57:00,
2013-02-15 01:02:00,34.7,18.5,30.08,ENE,57,2.0,8.0,51,0.00,,,0.00,0.0,meteohub,2013-02-15 08:02:00,
2013-02-15 01:07:00,34.5,18.3,30.08,ENE,57,1.0,5.0,51,0.00,,,0.00,0.0,meteohub,2013-02-15 08:07:00,
2013-02-15 01:12:00,34.5,18.3,30.08,ENE,57,0.0,4.0,51,0.00,,,0.00,0.0,meteohub,2013-02-15 08:12:00,
2013-02-15 01:17:00,34.2,18.0,30.09,ENE,59,1.0,4.0,51,0.00,,,0.00,0.0,meteohub,2013-02-15 08:17:00,
2013-02-15 01:22:00,34.2,18.3,30.09,ENE,60,1.0,3.0,52,0.00,,,0.00,0.0,meteohub,2013-02-15 08:22:00,
2013-02-15 01:27:00,34.2,18.3,30.09,ENE,65,1.0,3.0,52,0.00,,,0.00,0.0,meteohub,2013-02-15 08:27:00,
2013-02-15 01:32:00,34.5,18.3,30.09,ENE,68,3.0,4.0,51,0.00,,,0.00,0.0,meteohub,2013-02-15 08:32:00,
2013-02-15 01:37:00,35.1,19.2,30.09,ENE,71,3.0,4.0,52,0.00,,,0.00,0.0,meteohub,2013-02-15 08:37:00,
2013-02-15 01:42:00,35.1,20.5,30.09,ENE,72,2.0,4.0,55,0.00,,,0.00,0.0,meteohub,2013-02-15 08:42:00,
2013-02-15 01:47:00,34.5,19.6,30.09,SW,221,4.0,4.0,54,0.00,,,0.00,0.0,meteohub,2013-02-15 08:47:00,
2013-02-15 01:52:00,33.6,18.3,30.10,SSW,194,0.0,5.0,53,0.00,,,0.00,0.0,meteohub,2013-02-15 08:52:00,
2013-02-15 01:57:00,33.1,18.3,30.09,South,190,1.0,5.0,54,0.00,,,0.00,0.0,meteohub,2013-02-15 08:57:00,
2013-02-15 02:02:00,32.9,18.1,30.09,SSW,195,2.0,5.0,54,0.00,,,0.00,0.0,meteohub,2013-02-15 09:02:00,
2013-02-15 02:07:00,33.1,18.7,30.09,SW,223,3.0,5.0,55,0.00,,,0.00,0.0,meteohub,2013-02-15 09:07:00,
2013-02-15 02:12:00,33.4,19.0,30.09,SW,224,0.0,6.0,55,0.00,,,0.00,0.0,meteohub,2013-02-15 09:12:00,
2013-02-15 02:17:00,33.3,19.8,30.09,SW,224,1.0,6.0,57,0.00,,,0.00,0.0,meteohub,2013-02-15 09:17:00,
2013-02-15 02:22:00,33.1,20.3,30.10,SW,224,0.0,6.0,59,0.00,,,0.00,0.0,meteohub,2013-02-15 09:22:00,
2013-02-15 02:27:00,32.9,20.5,30.10,SW,224,0.0,2.0,60,0.00,,,0.00,0.0,meteohub,2013-02-15 09:27:00,
2013-02-15 02:32:00,32.4,19.6,30.10,South,173,2.0,2.0,59,0.00,,,0.00,0.0,meteohub,2013-02-15 09:32:00,
2013-02-15 02:37:00,31.8,19.0,30.10,SSE,165,0.0,2.0,59,0.00,,,0.00,0.0,meteohub,2013-02-15 09:37:00,
2013-02-15 02:42:00,31.6,19.0,30.10,SSE,163,1.0,2.0,59,0.00,,,0.00,0.0,meteohub,2013-02-15 09:42:00,
2013-02-15 02:47:00,31.3,18.7,30.10,East,90,3.0,3.0,59,0.00,,,0.00,0.0,meteohub,2013-02-15 09:47:00,
2013-02-15 02:52:00,31.3,19.4,30.10,East,86,2.0,3.0,61,0.00,,,0.00,0.0,meteohub,2013-02-15 09:52:00,
2013-02-15 02:57:00,31.6,19.8,30.10,East,90,1.0,5.0,61,0.00,,,0.00,0.0,meteohub,2013-02-15 09:57:00,
2013-02-15 03:02:00,31.6,19.4,30.10,East,89,1.0,5.0,60,0.00,,,0.00,0.0,meteohub,2013-02-15 10:02:00,
2013-02-15 03:07:00,31.6,19.4,30.10,East,88,2.0,5.0,60,0.00,,,0.00,0.0,meteohub,2013-02-15 10:07:00,
2013-02-15 03:12:00,31.6,19.4,30.10,East,88,1.0,3.0,60,0.00,,,0.00,0.0,meteohub,2013-02-15 10:12:00,
2013-02-15 03:17:00,31.5,19.6,30.09,East,88,0.0,3.0,61,0.00,,,0.00,0.0,meteohub,2013-02-15 10:17:00,
2013-02-15 03:22:00,31.3,19.4,30.09,East,89,2.0,3.0,61,0.00,,,0.00,0.0,meteohub,2013-02-15 10:22:00,
2013-02-15 03:27:00,31.3,19.4,30.10,East,84,2.0,5.0,61,0.00,,,0.00,0.0,meteohub,2013-02-15 10:27:00,
2013-02-15 03:32:00,30.9,19.0,30.10,East,80,5.0,5.0,61,0.00,,,0.00,0.0,meteohub,2013-02-15 10:32:00,
2013-02-15 03:37:00,31.1,19.2,30.10,East,84,3.0,7.0,61,0.00,,,0.00,0.0,meteohub,2013-02-15 10:37:00,
2013-02-15 03:42:00,30.9,18.7,30.09,East,88,3.0,7.0,60,0.00,,,0.00,0.0,meteohub,2013-02-15 10:42:00,
2013-02-15 03:47:00,31.3,19.0,30.10,ENE,69,2.0,6.0,60,0.00,,,0.00,0.0,meteohub,2013-02-15 10:47:00,
2013-02-15 03:52:00,31.8,19.0,30.10,ENE,65,2.0,6.0,59,0.00,,,0.00,0.0,meteohub,2013-02-15 10:52:00,
2013-02-15 03:57:00,31.5,18.9,30.10,ENE,63,2.0,6.0,59,0.00,,,0.00,0.0,meteohub,2013-02-15 10:57:00,
2013-02-15 04:02:00,31.6,19.0,30.10,NNE,29,1.0,4.0,59,0.00,,,0.00,0.0,meteohub,2013-02-15 11:02:00,
2013-02-15 04:07:00,31.8,19.9,30.10,NNE,33,3.0,6.0,61,0.00,,,0.00,0.0,meteohub,2013-02-15 11:07:00,
2013-02-15 04:12:00,31.8,19.6,30.10,NNE,29,3.0,6.0,60,0.00,,,0.00,0.0,meteohub,2013-02-15 11:12:00,
2013-02-15 04:17:00,31.6,19.4,30.10,NE,44,1.0,6.0,60,0.00,,,0.00,0.0,meteohub,2013-02-15 11:17:00,
2013-02-15 04:22:00,31.6,19.4,30.11,NE,50,2.0,6.0,60,0.00,,,0.00,0.0,meteohub,2013-02-15 11:22:00,
2013-02-15 04:27:00,31.5,18.9,30.11,NE,46,1.0,5.0,59,0.00,,,0.00,0.0,meteohub,2013-02-15 11:27:00,
2013-02-15 04:32:00,31.3,19.0,30.11,NE,42,1.0,5.0,60,0.00,,,0.00,0.0,meteohub,2013-02-15 11:32:00,
2013-02-15 04:37:00,31.3,19.0,30.11,NNE,32,5.0,6.0,60,0.00,,,0.00,0.0,meteohub,2013-02-15 11:37:00,
2013-02-15 04:42:00,30.9,18.7,30.12,NE,34,2.0,6.0,60,0.00,,,0.00,0.0,meteohub,2013-02-15 11:42:00,
2013-02-15 04:47:00,30.9,18.7,30.11,NE,35,2.0,6.0,60,0.00,,,0.00,0.0,meteohub,2013-02-15 11:47:00,
2013-02-15 04:52:00,30.9,18.7,30.11,NNE,29,1.0,5.0,60,0.00,,,0.00,0.0,meteohub,2013-02-15 11:52:00,
2013-02-15 04:57:00,30.9,18.7,30.11,NNE,30,1.0,5.0,60,0.00,,,0.00,0.0,meteohub,2013-02-15 11:57:00,
2013-02-15 05:02:00,30.9,18.7,30.11,NNE,30,0.0,5.0,60,0.00,,,0.00,0.0,meteohub,2013-02-15 12:02:00,
2013-02-15 05:07:00,30.7,18.5,30.11,NNE,30,0.0,3.0,60,0.00,,,0.00,0.0,meteohub,2013-02-15 12:07:00,
2013-02-15 05:12:00,30.6,19.8,30.11,NNE,30,0.0,3.0,64,0.00,,,0.00,0.0,meteohub,2013-02-15 12:12:00,
2013-02-15 05:17:00,30.0,18.5,30.11,NNE,30,0.0,1.0,62,0.00,,,0.00,0.0,meteohub,2013-02-15 12:17:00,
2013-02-15 05:22:00,29.7,18.7,30.11,NNE,30,0.0,0.0,63,0.00,,,0.00,0.0,meteohub,2013-02-15 12:22:00,
2013-02-15 05:27:00,29.1,18.5,30.11,NNE,30,0.0,0.0,64,0.00,,,0.00,0.0,meteohub,2013-02-15 12:27:00,
2013-02-15 05:32:00,28.8,18.1,30.11,NNE,30,0.0,0.0,64,0.00,,,0.00,0.0,meteohub,2013-02-15 12:32:00,
2013-02-15 05:37:00,28.9,21.0,30.11,NNE,30,0.0,1.0,72,0.00,,,0.00,0.0,meteohub,2013-02-15 12:37:00,
2013-02-15 05:42:00,28.6,18.3,30.11,NNE,30,0.0,1.0,65,0.00,,,0.00,0.0,meteohub,2013-02-15 12:42:00,
2013-02-15 05:47:00,28.2,18.3,30.11,NNE,30,0.0,1.0,66,0.00,,,0.00,0.0,meteohub,2013-02-15 12:47:00,
2013-02-15 05:52:00,27.9,18.0,30.11,NNE,30,1.0,1.0,66,0.00,,,0.00,0.0,meteohub,2013-02-15 12:52:00,
2013-02-15 05:57:00,27.9,18.3,30.11,NNE,30,0.0,2.0,67,0.00,,,0.00,0.0,meteohub,2013-02-15 12:57:00,
2013-02-15 06:02:00,28.0,18.1,30.12,NNE,30,0.0,2.0,66,0.00,,,0.00,0.0,meteohub,2013-02-15 13:02:00,
2013-02-15 06:07:00,28.0,18.1,30.12,NNE,30,0.0,2.0,66,0.00,,,0.00,0.0,meteohub,2013-02-15 13:07:00,
2013-02-15 06:12:00,27.9,18.0,30.12,NNE,30,0.0,2.0,66,0.00,,,0.00,0.0,meteohub,2013-02-15 13:12:00,
2013-02-15 06:17:00,27.9,18.3,30.12,NNE,30,1.0,2.0,67,0.00,,,0.00,0.0,meteohub,2013-02-15 13:17:00,
2013-02-15 06:22:00,27.9,18.3,30.12,NNE,31,1.0,3.0,67,0.00,,,0.00,0.0,meteohub,2013-02-15 13:22:00,
2013-02-15 06:27:00,27.9,18.3,30.12,NNE,32,0.0,3.0,67,0.00,,,0.00,0.0,meteohub,2013-02-15 13:27:00,
2013-02-15 06:32:00,27.5,18.0,30.12,NNE,32,0.0,3.0,67,0.00,,,0.00,0.0,meteohub,2013-02-15 13:32:00,
2013-02-15 06:37:00,27.3,17.8,30.12,NNE,32,0.0,3.0,67,0.00,,,0.00,0.0,meteohub,2013-02-15 13:37:00,
2013-02-15 06:42:00,27.0,17.8,30.12,NNE,32,0.0,2.0,68,0.00,,,0.00,0.0,meteohub,2013-02-15 13:42:00,
2013-02-15 06:47:00,26.8,18.0,30.12,NNE,32,1.0,1.0,69,0.00,,,0.00,0.0,meteohub,2013-02-15 13:47:00,
2013-02-15 06:52:00,27.1,19.0,30.12,NNE,32,1.0,2.0,71,0.00,,,0.00,0.0,meteohub,2013-02-15 13:52:00,
2013-02-15 06:57:00,27.1,18.3,30.12,NNE,32,0.0,2.0,69,0.00,,,0.00,7.0,meteohub,2013-02-15 13:57:00,
2013-02-15 07:02:00,27.0,18.5,30.12,NNE,32,0.0,2.0,70,0.00,,,0.00,9.0,meteohub,2013-02-15 14:02:00,
2013-02-15 07:07:00,26.8,18.3,30.12,NNE,32,0.0,2.0,70,0.00,,,0.00,11.0,meteohub,2013-02-15 14:07:00,
2013-02-15 07:12:00,26.4,17.6,30.12,NNE,32,1.0,2.0,69,0.00,,,0.00,14.0,meteohub,2013-02-15 14:12:00,
2013-02-15 07:17:00,26.2,17.8,30.13,NNE,32,0.0,2.0,70,0.00,,,0.00,16.0,meteohub,2013-02-15 14:17:00,
2013-02-15 07:22:00,26.2,18.1,30.13,NNE,32,0.0,2.0,71,0.00,,,0.00,19.0,meteohub,2013-02-15 14:22:00,
2013-02-15 07:27:00,26.6,18.5,30.13,NNE,32,0.0,2.0,71,0.00,,,0.00,46.0,meteohub,2013-02-15 14:27:00,
2013-02-15 07:32:00,26.8,18.3,30.14,NNE,32,0.0,2.0,70,0.00,,,0.00,49.0,meteohub,2013-02-15 14:32:00,
2013-02-15 07:37:00,27.0,18.5,30.14,NNE,32,0.0,1.0,70,0.00,,,0.00,58.0,meteohub,2013-02-15 14:37:00,
2013-02-15 07:42:00,27.1,18.3,30.15,NNE,32,0.0,1.0,69,0.00,,,0.00,56.0,meteohub,2013-02-15 14:42:00,
2013-02-15 07:47:00,27.1,18.3,30.15,NNE,32,0.0,0.0,69,0.00,,,0.00,67.0,meteohub,2013-02-15 14:47:00,
2013-02-15 07:52:00,27.5,18.7,30.16,NNE,32,0.0,1.0,69,0.00,,,0.00,77.0,meteohub,2013-02-15 14:52:00,
2013-02-15 07:57:00,27.7,18.9,30.16,NNE,32,0.0,1.0,69,0.00,,,0.00,151.0,meteohub,2013-02-15 14:57:00,
2013-02-15 08:02:00,28.0,18.9,30.16,NNE,32,0.0,1.0,68,0.00,,,0.00,186.0,meteohub,2013-02-15 15:02:00,
2013-02-15 08:07:00,28.0,18.9,30.16,NNE,32,1.0,0.0,68,0.00,,,0.00,214.0,meteohub,2013-02-15 15:07:00,
2013-02-15 08:12:00,28.8,19.2,30.16,NE,36,1.0,2.0,67,0.00,,,0.00,236.0,meteohub,2013-02-15 15:12:00,
2013-02-15 08:17:00,29.5,19.6,30.16,NE,38,0.0,2.0,66,0.00,,,0.00,255.0,meteohub,2013-02-15 15:17:00,
2013-02-15 08:22:00,29.8,19.6,30.16,NE,38,1.0,3.0,65,0.00,,,0.00,272.0,meteohub,2013-02-15 15:22:00,
2013-02-15 08:27:00,30.6,19.8,30.17,NE,54,0.0,3.0,64,0.00,,,0.00,287.0,meteohub,2013-02-15 15:27:00,
2013-02-15 08:32:00,30.7,19.6,30.17,NE,54,0.0,3.0,63,0.00,,,0.00,304.0,meteohub,2013-02-15 15:32:00,
2013-02-15 08:37:00,31.5,20.3,30.17,NE,54,0.0,3.0,63,0.00,,,0.00,322.0,meteohub,2013-02-15 15:37:00,
2013-02-15 08:42:00,32.2,20.3,30.17,NE,54,2.0,2.0,61,0.00,,,0.00,338.0,meteohub,2013-02-15 15:42:00,
2013-02-15 08:47:00,32.5,20.1,30.17,NE,54,0.0,3.0,60,0.00,,,0.00,353.0,meteohub,2013-02-15 15:47:00,
2013-02-15 08:52:00,33.3,20.5,30.17,NE,54,2.0,3.0,59,0.00,,,0.00,371.0,meteohub,2013-02-15 15:52:00,
2013-02-15 08:57:00,33.4,20.7,30.17,NE,38,3.0,3.0,59,0.00,,,0.00,387.0,meteohub,2013-02-15 15:57:00,
2013-02-15 09:02:00,33.6,20.5,30.17,NE,44,1.0,3.0,58,0.00,,,0.00,396.0,meteohub,2013-02-15 16:02:00,
2013-02-15 09:07:00,34.2,20.5,30.17,NW,319,2.0,6.0,57,0.00,,,0.00,415.0,meteohub,2013-02-15 16:07:00,
2013-02-15 09:12:00,34.3,20.7,30.17,NW,313,2.0,6.0,57,0.00,,,0.00,432.0,meteohub,2013-02-15 16:12:00,
2013-02-15 09:17:00,34.5,20.5,30.16,NW,309,0.0,6.0,56,0.00,,,0.00,441.0,meteohub,2013-02-15 16:17:00,
2013-02-15 09:22:00,34.5,20.5,30.17,NW,308,1.0,3.0,56,0.00,,,0.00,461.0,meteohub,2013-02-15 16:22:00,
2013-02-15 09:27:00,34.9,20.3,30.17,South,180,0.0,5.0,55,0.00,,,0.00,475.0,meteohub,2013-02-15 16:27:00,
2013-02-15 09:32:00,35.4,20.8,30.17,South,181,1.0,5.0,55,0.00,,,0.00,489.0,meteohub,2013-02-15 16:32:00,
2013-02-15 09:37:00,36.0,21.0,30.17,SW,229,8.0,8.0,54,0.00,,,0.00,499.0,meteohub,2013-02-15 16:37:00,
2013-02-15 09:42:00,36.0,21.0,30.17,SW,232,3.0,8.0,54,0.00,,,0.00,512.0,meteohub,2013-02-15 16:42:00,
2013-02-15 09:47:00,36.9,21.7,30.17,WSW,247,2.0,8.0,54,0.00,,,0.00,524.0,meteohub,2013-02-15 16:47:00,
2013-02-15 09:52:00,36.9,21.4,30.17,West,259,3.0,8.0,53,0.00,,,0.00,536.0,meteohub,2013-02-15 16:52:00,
2013-02-15 09:57:00,37.4,20.8,30.17,SW,230,2.0,6.0,51,0.00,,,0.00,545.0,meteohub,2013-02-15 16:57:00,
2013-02-15 10:02:00,37.0,21.0,30.17,South,181,1.0,6.0,52,0.00,,,0.00,563.0,meteohub,2013-02-15 17:02:00,
2013-02-15 10:07:00,37.2,21.2,30.17,South,185,2.0,6.0,52,0.00,,,0.00,571.0,meteohub,2013-02-15 17:07:00,
2013-02-15 10:12:00,37.8,20.8,30.17,WSW,244,0.0,6.0,50,0.00,,,0.00,580.0,meteohub,2013-02-15 17:12:00,
2013-02-15 10:17:00,37.4,19.9,30.17,SSW,199,0.0,6.0,49,0.00,,,0.00,594.0,meteohub,2013-02-15 17:17:00,
2013-02-15 10:22:00,38.5,20.5,30.17,East,90,0.0,6.0,48,0.00,,,0.00,601.0,meteohub,2013-02-15 17:22:00,
2013-02-15 10:27:00,38.5,20.5,30.17,WNW,293,0.0,6.0,48,0.00,,,0.00,612.0,meteohub,2013-02-15 17:27:00,
2013-02-15 10:32:00,38.7,20.1,30.17,WSW,242,2.0,4.0,47,0.00,,,0.00,621.0,meteohub,2013-02-15 17:32:00,
2013-02-15 10:37:00,38.8,19.8,30.17,WSW,240,3.0,4.0,46,0.00,,,0.00,631.0,meteohub,2013-02-15 17:37:00,
2013-02-15 10:42:00,38.8,19.4,30.16,WSW,254,0.0,5.0,45,0.00,,,0.00,640.0,meteohub,2013-02-15 17:42:00,
2013-02-15 10:47:00,39.2,19.0,30.16,SSE,157,1.0,5.0,44,0.00,,,0.00,649.0,meteohub,2013-02-15 17:47:00,
2013-02-15 10:52:00,40.1,18.9,30.16,NW,313,7.0,7.0,42,0.00,,,0.00,656.0,meteohub,2013-02-15 17:52:00,
2013-02-15 10:57:00,40.3,18.5,30.16,SSW,207,1.0,7.0,41,0.00,,,0.00,666.0,meteohub,2013-02-15 17:57:00,
2013-02-15 11:02:00,40.5,18.0,30.16,NNW,330,8.0,8.0,40,0.00,,,0.00,671.0,meteohub,2013-02-15 18:02:00,
2013-02-15 11:07:00,40.3,18.5,30.16,North,5,4.0,8.0,41,0.00,,,0.00,675.0,meteohub,2013-02-15 18:07:00,
2013-02-15 11:12:00,39.9,17.6,30.16,NNW,348,3.0,8.0,40,0.00,,,0.00,679.0,meteohub,2013-02-15 18:12:00,
2013-02-15 11:17:00,40.6,17.6,30.16,WNW,298,3.0,9.0,39,0.00,,,0.00,682.0,meteohub,2013-02-15 18:17:00,
2013-02-15 11:22:00,40.3,18.0,30.15,NNE,25,0.0,9.0,40,0.00,,,0.00,682.0,meteohub,2013-02-15 18:22:00,
2013-02-15 11:27:00,40.5,17.4,30.15,NE,38,1.0,9.0,39,0.00,,,0.00,693.0,meteohub,2013-02-15 18:27:00,
2013-02-15 11:32:00,40.8,17.8,30.14,ENE,57,5.0,9.0,39,0.00,,,0.00,698.0,meteohub,2013-02-15 18:32:00,
2013-02-15 11:37:00,40.8,17.2,30.14,WSW,252,1.0,9.0,38,0.00,,,0.00,701.0,meteohub,2013-02-15 18:37:00,
2013-02-15 11:42:00,41.9,17.6,30.14,WNW,298,3.0,9.0,37,0.00,,,0.00,705.0,meteohub,2013-02-15 18:42:00,
2013-02-15 11:47:00,41.7,17.4,30.14,NNE,18,6.0,8.0,37,0.00,,,0.00,708.0,meteohub,2013-02-15 18:47:00,
2013-02-15 11:52:00,41.7,17.4,30.13,NW,304,3.0,8.0,37,0.00,,,0.00,712.0,meteohub,2013-02-15 18:52:00,
2013-02-15 11:57:00,42.1,17.6,30.13,WNW,296,3.0,8.0,37,0.00,,,0.00,714.0,meteohub,2013-02-15 18:57:00,
2013-02-15 12:02:00,43.2,18.0,30.13,WSW,249,4.0,8.0,36,0.00,,,0.00,714.0,meteohub,2013-02-15 19:02:00,
2013-02-15 12:07:00,43.2,18.0,30.12,ESE,113,2.0,8.0,36,0.00,,,0.00,717.0,meteohub,2013-02-15 19:07:00,
2013-02-15 12:12:00,43.2,18.0,30.12,North,5,2.0,9.0,36,0.00,,,0.00,715.0,meteohub,2013-02-15 19:12:00,
2013-02-15 12:17:00,43.5,17.1,30.12,South,178,3.0,9.0,34,0.00,,,0.00,715.0,meteohub,2013-02-15 19:17:00,
2013-02-15 12:22:00,44.4,17.8,30.11,WNW,302,7.0,9.0,34,0.00,,,0.00,715.0,meteohub,2013-02-15 19:22:00,
2013-02-15 12:27:00,44.4,17.8,30.10,SSW,196,3.0,10.0,34,0.00,,,0.00,717.0,meteohub,2013-02-15 19:27:00,
2013-02-15 12:32:00,46.0,13.1,30.10,NW,315,6.0,11.0,26,0.00,,,0.00,724.0,meteohub,2013-02-15 19:32:00,
2013-02-15 12:37:00,47.1,13.1,30.10,NW,318,14.0,20.0,25,0.00,,,0.00,722.0,meteohub,2013-02-15 19:37:00,
2013-02-15 12:42:00,47.8,11.8,30.10,North,5,8.0,20.0,23,0.00,,,0.00,721.0,meteohub,2013-02-15 19:42:00,
2013-02-15 12:47:00,48.0,10.9,30.09,NW,320,9.0,20.0,22,0.00,,,0.00,717.0,meteohub,2013-02-15 19:47:00,
2013-02-15 12:52:00,48.4,12.2,30.09,NNW,348,11.0,20.0,23,0.00,,,0.00,710.0,meteohub,2013-02-15 19:52:00,
2013-02-15 12:57:00,48.4,12.2,30.09,NNW,336,13.0,20.0,23,0.00,,,0.00,707.0,meteohub,2013-02-15 19:57:00,
2013-02-15 13:02:00,48.4,12.2,30.09,WNW,294,15.0,22.0,23,0.00,,,0.00,710.0,meteohub,2013-02-15 20:02:00,
2013-02-15 13:07:00,48.4,13.3,30.08,NW,309,10.0,22.0,24,0.00,,,0.00,700.0,meteohub,2013-02-15 20:07:00,
2013-02-15 13:12:00,48.6,13.5,30.08,North,355,8.0,22.0,24,0.00,,,0.00,694.0,meteohub,2013-02-15 20:12:00,
2013-02-15 13:17:00,48.9,12.7,30.07,NNW,338,11.0,20.0,23,0.00,,,0.00,691.0,meteohub,2013-02-15 20:17:00,
2013-02-15 13:22:00,48.9,10.8,30.07,North,350,10.0,19.0,21,0.00,,,0.00,680.0,meteohub,2013-02-15 20:22:00,
2013-02-15 13:27:00,49.3,12.0,30.06,NW,321,15.0,19.0,22,0.00,,,0.00,670.0,meteohub,2013-02-15 20:27:00,
2013-02-15 13:32:00,49.6,9.0,30.07,NNW,329,19.0,21.0,19,0.00,,,0.00,675.0,meteohub,2013-02-15 20:32:00,
2013-02-15 13:37:00,49.5,7.7,30.06,NW,309,16.0,21.0,18,0.00,,,0.00,668.0,meteohub,2013-02-15 20:37:00,
2013-02-15 13:42:00,50.2,5.7,30.06,NNE,18,12.0,25.0,16,0.00,,,0.00,656.0,meteohub,2013-02-15 20:42:00,
2013-02-15 13:47:00,50.2,2.8,30.06,NNW,341,22.0,25.0,14,0.00,,,0.00,650.0,meteohub,2013-02-15 20:47:00,
2013-02-15 13:52:00,50.4,3.0,30.06,NNW,336,8.0,25.0,14,0.00,,,0.00,645.0,meteohub,2013-02-15 20:52:00,
2013-02-15 13:57:00,50.2,2.8,30.06,NW,313,22.0,25.0,14,0.00,,,0.00,636.0,meteohub,2013-02-15 20:57:00,
2013-02-15 14:02:00,50.4,1.4,30.06,NNW,334,11.0,25.0,13,0.00,,,0.00,619.0,meteohub,2013-02-15 21:02:00,
2013-02-15 14:07:00,50.4,1.4,30.06,NNW,340,13.0,34.0,13,0.00,,,0.00,615.0,meteohub,2013-02-15 21:07:00,
2013-02-15 14:12:00,50.5,3.0,30.06,North,355,15.0,34.0,14,0.00,,,0.00,608.0,meteohub,2013-02-15 21:12:00,
2013-02-15 14:22:00,50.5,1.4,30.06,NW,325,10.0,25.0,13,0.00,,,0.00,582.0,meteohub,2013-02-15 21:22:00,
2013-02-15 14:27:00,50.4,1.4,30.06,North,5,10.0,25.0,13,0.00,,,0.00,573.0,meteohub,2013-02-15 21:27:00,
2013-02-15 14:32:00,50.2,1.2,30.06,NW,306,19.0,27.0,13,0.00,,,0.00,564.0,meteohub,2013-02-15 21:32:00,
2013-02-15 14:37:00,50.2,1.2,30.06,NNW,344,7.0,27.0,13,0.00,,,0.00,554.0,meteohub,2013-02-15 21:37:00,
2013-02-15 14:42:00,50.5,1.4,30.06,North,355,13.0,23.0,13,0.00,,,0.00,543.0,meteohub,2013-02-15 21:42:00,
2013-02-15 14:47:00,50.4,-0.4,30.06,NNW,340,16.0,23.0,12,0.00,,,0.00,527.0,meteohub,2013-02-15 21:47:00,
2013-02-15 14:52:00,50.4,-0.4,30.06,WNW,294,12.0,21.0,12,0.00,,,0.00,515.0,meteohub,2013-02-15 21:52:00,
2013-02-15 14:57:00,50.4,1.4,30.06,NW,324,20.0,23.0,13,0.00,,,0.00,503.0,meteohub,2013-02-15 21:57:00,
2013-02-15 15:02:00,49.8,0.9,30.06,NW,316,17.0,27.0,13,0.00,,,0.00,490.0,meteohub,2013-02-15 22:02:00,
2013-02-15 15:07:00,50.2,1.2,30.06,NNW,345,12.0,27.0,13,0.00,,,0.00,475.0,meteohub,2013-02-15 22:07:00,
2013-02-15 15:12:00,50.5,1.4,30.06,NW,325,6.0,27.0,13,0.00,,,0.00,461.0,meteohub,2013-02-15 22:12:00,
2013-02-15 15:17:00,50.4,1.4,30.06,NNW,331,9.0,24.0,13,0.00,,,0.00,450.0,meteohub,2013-02-15 22:17:00,
2013-02-15 15:22:00,50.2,1.2,30.06,NNW,329,18.0,21.0,13,0.00,,,0.00,434.0,meteohub,2013-02-15 22:22:00,
2013-02-15 15:27:00,50.4,3.0,30.06,NW,317,11.0,19.0,14,0.00,,,0.00,418.0,meteohub,2013-02-15 22:27:00,
2013-02-15 15:32:00,50.2,1.2,30.06,NNW,327,12.0,19.0,13,0.00,,,0.00,401.0,meteohub,2013-02-15 22:32:00,
2013-02-15 15:37:00,50.2,2.8,30.06,NNW,338,11.0,20.0,14,0.00,,,0.00,387.0,meteohub,2013-02-15 22:37:00,
2013-02-15 15:42:00,50.4,3.0,30.07,North,355,14.0,21.0,14,0.00,,,0.00,369.0,meteohub,2013-02-15 22:42:00,
2013-02-15 15:47:00,50.2,2.8,30.07,NW,321,10.0,21.0,14,0.00,,,0.00,353.0,meteohub,2013-02-15 22:47:00,
2013-02-15 15:52:00,50.2,2.8,30.07,NNW,336,15.0,21.0,14,0.00,,,0.00,341.0,meteohub,2013-02-15 22:52:00,
2013-02-15 15:57:00,50.2,2.8,30.06,NW,304,13.0,24.0,14,0.00,,,0.00,323.0,meteohub,2013-02-15 22:57:00,
2013-02-15 16:02:00,50.0,1.0,30.07,NW,320,12.0,24.0,13,0.00,,,0.00,308.0,meteohub,2013-02-15 23:02:00,
2013-02-15 16:07:00,50.0,2.7,30.07,WNW,302,8.0,24.0,14,0.00,,,0.00,287.0,meteohub,2013-02-15 23:07:00,
2013-02-15 16:12:00,50.2,2.8,30.07,NNW,340,19.0,22.0,14,0.00,,,0.00,269.0,meteohub,2013-02-15 23:12:00,
2013-02-15 16:17:00,49.8,2.5,30.07,NW,311,6.0,22.0,14,0.00,,,0.00,248.0,meteohub,2013-02-15 23:17:00,
2013-02-15 16:22:00,49.8,2.5,30.07,NW,306,12.0,22.0,14,0.00,,,0.00,227.0,meteohub,2013-02-15 23:22:00,
2013-02-15 16:32:00,49.8,0.9,30.07,NNW,341,10.0,18.0,13,0.00,,,0.00,188.0,meteohub,2013-02-15 23:32:00,
2013-02-15 16:37:00,49.8,2.5,30.08,NW,323,18.0,19.0,14,0.00,,,0.00,167.0,meteohub,2013-02-15 23:37:00,
2013-02-15 16:42:00,49.6,2.3,30.08,NNW,344,18.0,20.0,14,0.00,,,0.00,148.0,meteohub,2013-02-15 23:42:00,
2013-02-15 16:47:00,49.6,2.3,30.08,NNW,334,14.0,20.0,14,0.00,,,0.00,125.0,meteohub,2013-02-15 23:47:00,
2013-02-15 16:52:00,49.5,2.3,30.09,NNW,332,13.0,22.0,14,0.00,,,0.00,105.0,meteohub,2013-02-15 23:52:00,
2013-02-15 16:57:00,49.5,2.3,30.09,NNW,346,9.0,22.0,14,0.00,,,0.00,88.0,meteohub,2013-02-15 23:57:00,
2013-02-15 17:02:00,49.5,2.3,30.09,WNW,298,8.0,22.0,14,0.00,,,0.00,72.0,meteohub,2013-02-16 00:02:00,
2013-02-15 17:07:00,49.3,2.1,30.09,NNW,342,7.0,19.0,14,0.00,,,0.00,54.0,meteohub,2013-02-16 00:07:00,
2013-02-15 17:12:00,49.1,1.9,30.09,NW,323,11.0,19.0,14,0.00,,,0.00,37.0,meteohub,2013-02-16 00:12:00,
2013-02-15 17:17:00,48.9,1.8,30.09,NNW,330,7.0,18.0,14,0.00,,,0.00,25.0,meteohub,2013-02-16 00:17:00,
2013-02-15 17:22:00,48.9,1.8,30.09,NNW,328,8.0,17.0,14,0.00,,,0.00,16.0,meteohub,2013-02-16 00:22:00,
2013-02-15 17:27:00,48.9,1.8,30.09,North,355,8.0,17.0,14,0.00,,,0.00,14.0,meteohub,2013-02-16 00:27:00,
2013-02-15 17:32:00,48.7,3.2,30.09,NNW,335,7.0,16.0,15,0.00,,,0.00,12.0,meteohub,2013-02-16 00:32:00,
2013-02-15 17:37:00,48.4,2.8,30.09,NW,320,13.0,16.0,15,0.00,,,0.00,11.0,meteohub,2013-02-16 00:37:00,
2013-02-15 17:42:00,48.2,2.7,30.10,NNW,329,6.0,16.0,15,0.00,,,0.00,7.0,meteohub,2013-02-16 00:42:00,
2013-02-15 17:47:00,48.0,2.5,30.09,NNW,333,6.0,15.0,15,0.00,,,0.00,5.0,meteohub,2013-02-16 00:47:00,
2013-02-15 17:52:00,47.7,2.3,30.10,North,355,7.0,15.0,15,0.00,,,0.00,0.0,meteohub,2013-02-16 00:52:00,
2013-02-15 17:57:00,47.5,2.1,30.10,NNW,327,4.0,13.0,15,0.00,,,0.00,0.0,meteohub,2013-02-16 00:57:00,
2013-02-15 18:02:00,46.9,3.0,30.10,North,350,5.0,13.0,16,0.00,,,0.00,0.0,meteohub,2013-02-16 01:02:00,
2013-02-15 18:07:00,46.8,2.8,30.11,NNW,339,2.0,13.0,16,0.00,,,0.00,0.0,meteohub,2013-02-16 01:07:00,
2013-02-15 18:12:00,46.4,3.9,30.11,NNW,340,5.0,9.0,17,0.00,,,0.00,0.0,meteohub,2013-02-16 01:12:00,
2013-02-15 18:17:00,46.0,3.6,30.11,NW,314,3.0,8.0,17,0.00,,,0.00,0.0,meteohub,2013-02-16 01:17:00,
2013-02-15 18:22:00,45.9,3.6,30.11,North,355,2.0,9.0,17,0.00,,,0.00,0.0,meteohub,2013-02-16 01:22:00,
2013-02-15 18:27:00,45.7,3.4,30.12,North,350,2.0,9.0,17,0.00,,,0.00,0.0,meteohub,2013-02-16 01:27:00,
2013-02-15 18:32:00,45.3,4.3,30.12,NNE,24,3.0,9.0,18,0.00,,,0.00,0.0,meteohub,2013-02-16 01:32:00,
2013-02-15 18:37:00,44.8,3.9,30.12,NE,53,2.0,7.0,18,0.00,,,0.00,0.0,meteohub,2013-02-16 01:37:00,
2013-02-15 18:42:00,44.2,4.6,30.12,NE,54,4.0,6.0,19,0.00,,,0.00,0.0,meteohub,2013-02-16 01:42:00,
2013-02-15 18:47:00,44.1,4.5,30.12,NE,51,1.0,5.0,19,0.00,,,0.00,0.0,meteohub,2013-02-16 01:47:00,
2013-02-15 18:52:00,43.9,4.3,30.12,NNE,30,3.0,4.0,19,0.00,,,0.00,0.0,meteohub,2013-02-16 01:52:00,
2013-02-15 18:57:00,44.1,4.5,30.12,North,355,1.0,7.0,19,0.00,,,0.00,0.0,meteohub,2013-02-16 01:57:00,
2013-02-15 19:02:00,44.1,4.5,30.12,North,349,3.0,7.0,19,0.00,,,0.00,0.0,meteohub,2013-02-16 02:02:00,
2013-02-15 19:07:00,44.1,4.5,30.13,North,355,1.0,7.0,19,0.00,,,0.00,0.0,meteohub,2013-02-16 02:07:00,
2013-02-15 19:12:00,43.9,4.3,30.13,North,355,3.0,7.0,19,0.00,,,0.00,0.0,meteohub,2013-02-16 02:12:00,
2013-02-15 19:22:00,43.5,3.9,30.14,North,5,6.0,6.0,19,0.00,,,0.00,0.0,meteohub,2013-02-16 02:22:00,
2013-02-15 19:27:00,43.9,4.3,30.14,North,355,6.0,10.0,19,0.00,,,0.00,0.0,meteohub,2013-02-16 02:27:00,
2013-02-15 19:32:00,43.7,4.1,30.14,North,355,5.0,12.0,19,0.00,,,0.00,0.0,meteohub,2013-02-16 02:32:00,
2013-02-15 19:37:00,43.3,5.0,30.14,North,0,3.0,12.0,20,0.00,,,0.00,0.0,meteohub,2013-02-16 02:37:00,
2013-02-15 19:42:00,43.0,4.6,30.14,NNE,15,3.0,12.0,20,0.00,,,0.00,0.0,meteohub,2013-02-16 02:42:00,
2013-02-15 19:47:00,42.6,4.3,30.14,NE,37,3.0,9.0,20,0.00,,,0.00,0.0,meteohub,2013-02-16 02:47:00,
2013-02-15 19:52:00,42.4,4.1,30.14,NNE,31,5.0,9.0,20,0.00,,,0.00,0.0,meteohub,2013-02-16 02:52:00,
2013-02-15 19:57:00,42.1,3.9,30.15,NE,34,2.0,11.0,20,0.00,,,0.00,0.0,meteohub,2013-02-16 02:57:00,
2013-02-15 20:02:00,41.7,4.6,30.15,NNE,25,7.0,11.0,21,0.00,,,0.00,0.0,meteohub,2013-02-16 03:02:00,
2013-02-15 20:07:00,41.7,4.6,30.15,NNE,27,3.0,7.0,21,0.00,,,0.00,0.0,meteohub,2013-02-16 03:07:00,
2013-02-15 20:12:00,41.9,4.8,30.15,NNE,21,6.0,8.0,21,0.00,,,0.00,0.0,meteohub,2013-02-16 03:12:00,
2013-02-15 20:17:00,41.9,4.8,30.15,NNE,28,4.0,13.0,21,0.00,,,0.00,0.0,meteohub,2013-02-16 03:17:00,
2013-02-15 20:22:00,42.1,5.0,30.15,North,355,11.0,13.0,21,0.00,,,0.00,0.0,meteohub,2013-02-16 03:22:00,
2013-02-15 20:27:00,42.3,5.2,30.15,NNE,28,10.0,16.0,21,0.00,,,0.00,0.0,meteohub,2013-02-16 03:27:00,
2013-02-15 20:32:00,42.3,5.2,30.16,NNW,340,11.0,16.0,21,0.00,,,0.00,0.0,meteohub,2013-02-16 03:32:00,
2013-02-15 20:37:00,42.3,6.1,30.16,NNE,15,8.0,18.0,22,0.00,,,0.00,0.0,meteohub,2013-02-16 03:37:00,
2013-02-15 20:42:00,42.3,6.1,30.16,NNW,348,4.0,18.0,22,0.00,,,0.00,0.0,meteohub,2013-02-16 03:42:00,
2013-02-15 20:47:00,42.1,5.9,30.17,NNE,32,2.0,18.0,22,0.00,,,0.00,0.0,meteohub,2013-02-16 03:47:00,
2013-02-15 20:52:00,41.7,5.7,30.17,NNE,27,2.0,12.0,22,0.00,,,0.00,0.0,meteohub,2013-02-16 03:52:00,
2013-02-15 20:57:00,41.4,6.3,30.17,NNE,21,3.0,11.0,23,0.00,,,0.00,0.0,meteohub,2013-02-16 03:57:00,
2013-02-15 21:02:00,41.2,6.3,30.17,North,355,4.0,8.0,23,0.00,,,0.00,0.0,meteohub,2013-02-16 04:02:00,
2013-02-15 21:07:00,41.2,7.2,30.17,North,5,4.0,8.0,24,0.00,,,0.00,0.0,meteohub,2013-02-16 04:07:00,
2013-02-15 21:12:00,41.2,7.2,30.18,NNE,14,2.0,9.0,24,0.00,,,0.00,0.0,meteohub,2013-02-16 04:12:00,
2013-02-15 21:17:00,40.8,6.8,30.19,NNE,30,4.0,9.0,24,0.00,,,0.00,0.0,meteohub,2013-02-16 04:17:00,
2013-02-15 21:22:00,41.0,7.0,30.19,NE,46,3.0,10.0,24,0.00,,,0.00,0.0,meteohub,2013-02-16 04:22:00,
2013-02-15 21:27:00,41.0,7.0,30.20,NNE,29,2.0,14.0,24,0.00,,,0.00,0.0,meteohub,2013-02-16 04:27:00,
2013-02-15 21:32:00,40.8,7.7,30.20,NNE,17,2.0,14.0,25,0.00,,,0.00,0.0,meteohub,2013-02-16 04:32:00,
2013-02-15 21:37:00,40.6,7.5,30.21,NNW,348,0.0,14.0,25,0.00,,,0.00,0.0,meteohub,2013-02-16 04:37:00,
2013-02-15 21:42:00,40.6,7.5,30.21,NE,34,9.0,9.0,25,0.00,,,0.00,0.0,meteohub,2013-02-16 04:42:00,
2013-02-15 21:47:00,40.6,7.5,30.21,NE,36,5.0,11.0,25,0.00,,,0.00,0.0,meteohub,2013-02-16 04:47:00,
2013-02-15 21:52:00,40.3,7.2,30.22,ENE,65,4.0,11.0,25,0.00,,,0.00,0.0,meteohub,2013-02-16 04:52:00,
2013-02-15 21:57:00,40.1,7.9,30.22,NE,53,5.0,11.0,26,0.00,,,0.00,0.0,meteohub,2013-02-16 04:57:00,
2013-02-15 22:02:00,39.9,7.9,30.22,NE,39,5.0,8.0,26,0.00,,,0.00,0.0,meteohub,2013-02-16 05:02:00,
2013-02-15 22:07:00,39.9,7.9,30.22,NE,50,6.0,12.0,26,0.00,,,0.00,0.0,meteohub,2013-02-16 05:07:00,
2013-02-15 22:12:00,39.7,7.7,30.22,NE,54,3.0,12.0,26,0.00,,,0.00,0.0,meteohub,2013-02-16 05:12:00,
2013-02-15 22:17:00,39.6,8.2,30.22,ENE,61,8.0,12.0,27,0.00,,,0.00,0.0,meteohub,2013-02-16 05:17:00,
2013-02-15 22:22:00,39.6,8.2,30.22,NNE,30,7.0,12.0,27,0.00,,,0.00,0.0,meteohub,2013-02-16 05:22:00,
2013-02-15 22:27:00,39.6,8.2,30.22,ENE,58,10.0,12.0,27,0.00,,,0.00,0.0,meteohub,2013-02-16 05:27:00,
2013-02-15 22:32:00,39.6,9.1,30.22,NNE,15,7.0,12.0,28,0.00,,,0.00,0.0,meteohub,2013-02-16 05:32:00,
2013-02-15 22:37:00,39.6,9.1,30.22,NE,53,5.0,15.0,28,0.00,,,0.00,0.0,meteohub,2013-02-16 05:37:00,
2013-02-15 22:42:00,39.2,8.8,30.22,NNE,25,5.0,15.0,28,0.00,,,0.00,0.0,meteohub,2013-02-16 05:42:00,
2013-02-15 22:47:00,38.8,8.4,30.22,NE,36,2.0,11.0,28,0.00,,,0.00,0.0,meteohub,2013-02-16 05:47:00,
2013-02-15 22:52:00,38.5,9.0,30.22,NNE,30,5.0,8.0,29,0.00,,,0.00,0.0,meteohub,2013-02-16 05:52:00,
2013-02-15 22:57:00,37.9,8.4,30.22,NNE,29,2.0,6.0,29,0.00,,,0.00,0.0,meteohub,2013-02-16 05:57:00,
2013-02-15 23:02:00,37.8,9.1,30.22,NNE,27,3.0,5.0,30,0.00,,,0.00,0.0,meteohub,2013-02-16 06:02:00,
2013-02-15 23:07:00,37.6,9.0,30.22,ENE,60,3.0,7.0,30,0.00,,,0.00,0.0,meteohub,2013-02-16 06:07:00,
2013-02-15 23:12:00,37.2,8.6,30.22,NE,51,3.0,8.0,30,0.00,,,0.00,0.0,meteohub,2013-02-16 06:12:00,
2013-02-15 23:17:00,37.0,9.1,30.22,North,5,1.0,8.0,31,0.00,,,0.00,0.0,meteohub,2013-02-16 06:17:00,
2013-02-15 23:22:00,36.9,9.0,30.22,NE,47,4.0,8.0,31,0.00,,,0.00,0.0,meteohub,2013-02-16 06:22:00,
2013-02-15 23:27:00,36.7,9.5,30.22,NE,44,4.0,5.0,32,0.00,,,0.00,0.0,meteohub,2013-02-16 06:27:00,
2013-02-15 23:32:00,36.7,9.5,30.22,NNE,25,3.0,7.0,32,0.00,,,0.00,0.0,meteohub,2013-02-16 06:32:00,
2013-02-15 23:37:00,36.7,9.5,30.22,NNE,24,3.0,7.0,32,0.00,,,0.00,0.0,meteohub,2013-02-16 06:37:00,
2013-02-15 23:42:00,36.3,9.3,30.22,NNW,346,4.0,7.0,32,0.00,,,0.00,0.0,meteohub,2013-02-16 06:42:00,
2013-02-15 23:47:00,36.1,9.1,30.22,NNE,19,2.0,6.0,32,0.00,,,0.00,0.0,meteohub,2013-02-16 06:47:00,
2013-02-15 23:52:00,36.0,9.7,30.22,NE,34,3.0,5.0,33,0.00,,,0.00,0.0,meteohub,2013-02-16 06:52:00,
2013-02-15 23:57:00,35.8,9.5,30.22,NNE,19,6.0,6.0,33,0.00,,,0.00,0.0,meteohub,2013-02-16 06:57:00,